sensor_id;sensor_type;location;lat;lon;timestamp;P1;durP1;ratioP1;P2;durP2;ratioP2
72209;SDS011;60113;48.762;12.302;2024-02-28T00:00:51;205.20;;;87.13;;
72209;SDS011;60113;48.762;12.302;2024-02-28T00:03:19;176.32;;;78.80;;
72209;SDS011;60113;48.762;12.302;2024-02-28T00:05:46;169.98;;;73.45;;
72209;SDS011;60113;48.762;12.302;2024-02-28T00:08:11;191.05;;;77.85;;
72209;SDS011;60113;48.762;12.302;2024-02-28T00:10:37;187.93;;;78.10;;
72209;SDS011;60113;48.762;12.302;2024-02-28T00:13:03;175.82;;;76.70;;
72209;SDS011;60113;48.762;12.302;2024-02-28T00:15:31;204.32;;;84.57;;
72209;SDS011;60113;48.762;12.302;2024-02-28T00:17:57;228.38;;;92.57;;
72209;SDS011;60113;48.762;12.302;2024-02-28T00:20:23;245.63;;;98.63;;
72209;SDS011;60113;48.762;12.302;2024-02-28T00:22:54;276.77;;;106.63;;
72209;SDS011;60113;48.762;12.302;2024-02-28T00:25:20;287.55;;;111.10;;
72209;SDS011;60113;48.762;12.302;2024-02-28T00:27:46;269.60;;;106.32;;
72209;SDS011;60113;48.762;12.302;2024-02-28T00:30:12;270.73;;;106.80;;
72209;SDS011;60113;48.762;12.302;2024-02-28T00:32:37;282.75;;;108.10;;
72209;SDS011;60113;48.762;12.302;2024-02-28T00:35:03;249.05;;;99.43;;
72209;SDS011;60113;48.762;12.302;2024-02-28T00:37:30;236.35;;;94.95;;
72209;SDS011;60113;48.762;12.302;2024-02-28T00:39:55;268.90;;;102.70;;
72209;SDS011;60113;48.762;12.302;2024-02-28T00:42:21;282.35;;;105.80;;
72209;SDS011;60113;48.762;12.302;2024-02-28T00:44:47;263.45;;;104.05;;
72209;SDS011;60113;48.762;12.302;2024-02-28T00:47:13;258.42;;;102.25;;
72209;SDS011;60113;48.762;12.302;2024-02-28T00:49:39;311.25;;;114.30;;
72209;SDS011;60113;48.762;12.302;2024-02-28T00:52:05;318.05;;;119.20;;
72209;SDS011;60113;48.762;12.302;2024-02-28T00:54:30;331.95;;;122.32;;
72209;SDS011;60113;48.762;12.302;2024-02-28T00:56:56;308.65;;;118.38;;
72209;SDS011;60113;48.762;12.302;2024-02-28T00:59:22;336.67;;;126.63;;
72209;SDS011;60113;48.762;12.302;2024-02-28T01:01:48;363.95;;;130.82;;
72209;SDS011;60113;48.762;12.302;2024-02-28T01:04:14;354.58;;;132.43;;
72209;SDS011;60113;48.762;12.302;2024-02-28T01:06:39;316.58;;;124.72;;
72209;SDS011;60113;48.762;12.302;2024-02-28T01:09:04;281.80;;;118.13;;
72209;SDS011;60113;48.762;12.302;2024-02-28T01:11:30;327.80;;;124.93;;
72209;SDS011;60113;48.762;12.302;2024-02-28T01:13:55;359.13;;;131.82;;
72209;SDS011;60113;48.762;12.302;2024-02-28T01:16:21;337.67;;;124.60;;
72209;SDS011;60113;48.762;12.302;2024-02-28T01:18:46;302.98;;;117.55;;
72209;SDS011;60113;48.762;12.302;2024-02-28T01:21:12;306.98;;;117.30;;
72209;SDS011;60113;48.762;12.302;2024-02-28T01:23:37;303.00;;;111.05;;
72209;SDS011;60113;48.762;12.302;2024-02-28T01:26:03;293.30;;;114.53;;
72209;SDS011;60113;48.762;12.302;2024-02-28T01:28:31;288.33;;;117.70;;
72209;SDS011;60113;48.762;12.302;2024-02-28T01:30:57;349.63;;;131.10;;
72209;SDS011;60113;48.762;12.302;2024-02-28T01:33:23;351.30;;;134.07;;
72209;SDS011;60113;48.762;12.302;2024-02-28T01:35:49;365.70;;;142.25;;
72209;SDS011;60113;48.762;12.302;2024-02-28T01:38:15;408.35;;;149.50;;
72209;SDS011;60113;48.762;12.302;2024-02-28T01:40:46;366.38;;;138.07;;
72209;SDS011;60113;48.762;12.302;2024-02-28T01:43:12;330.15;;;128.68;;
72209;SDS011;60113;48.762;12.302;2024-02-28T01:45:38;347.92;;;129.48;;
72209;SDS011;60113;48.762;12.302;2024-02-28T01:48:04;298.85;;;119.38;;
72209;SDS011;60113;48.762;12.302;2024-02-28T01:50:32;308.42;;;122.10;;
72209;SDS011;60113;48.762;12.302;2024-02-28T01:52:58;295.42;;;116.43;;
72209;SDS011;60113;48.762;12.302;2024-02-28T01:55:25;305.73;;;116.68;;
72209;SDS011;60113;48.762;12.302;2024-02-28T01:57:51;273.88;;;110.38;;
72209;SDS011;60113;48.762;12.302;2024-02-28T02:00:17;248.93;;;105.13;;
72209;SDS011;60113;48.762;12.302;2024-02-28T02:02:45;334.55;;;121.63;;
72209;SDS011;60113;48.762;12.302;2024-02-28T02:05:14;247.73;;;105.97;;
72209;SDS011;60113;48.762;12.302;2024-02-28T02:07:42;260.73;;;110.50;;
72209;SDS011;60113;48.762;12.302;2024-02-28T02:10:08;256.58;;;107.60;;
72209;SDS011;60113;48.762;12.302;2024-02-28T02:12:37;255.38;;;108.95;;
72209;SDS011;60113;48.762;12.302;2024-02-28T02:15:03;292.42;;;113.10;;
72209;SDS011;60113;48.762;12.302;2024-02-28T02:17:28;288.40;;;117.32;;
72209;SDS011;60113;48.762;12.302;2024-02-28T02:19:54;245.95;;;108.53;;
72209;SDS011;60113;48.762;12.302;2024-02-28T02:22:19;316.88;;;123.82;;
72209;SDS011;60113;48.762;12.302;2024-02-28T02:24:46;330.98;;;127.05;;
72209;SDS011;60113;48.762;12.302;2024-02-28T02:27:12;360.63;;;131.95;;
72209;SDS011;60113;48.762;12.302;2024-02-28T02:29:38;366.25;;;138.93;;
72209;SDS011;60113;48.762;12.302;2024-02-28T02:32:03;358.60;;;140.40;;
72209;SDS011;60113;48.762;12.302;2024-02-28T02:34:29;386.98;;;147.07;;
72209;SDS011;60113;48.762;12.302;2024-02-28T02:36:55;383.38;;;147.10;;
72209;SDS011;60113;48.762;12.302;2024-02-28T02:39:20;391.33;;;145.52;;
72209;SDS011;60113;48.762;12.302;2024-02-28T02:41:46;396.50;;;144.73;;
72209;SDS011;60113;48.762;12.302;2024-02-28T02:44:12;368.50;;;142.00;;
72209;SDS011;60113;48.762;12.302;2024-02-28T02:46:38;373.33;;;141.63;;
72209;SDS011;60113;48.762;12.302;2024-02-28T02:49:04;402.08;;;147.55;;
72209;SDS011;60113;48.762;12.302;2024-02-28T02:51:29;331.90;;;133.95;;
72209;SDS011;60113;48.762;12.302;2024-02-28T02:53:55;303.95;;;126.07;;
72209;SDS011;60113;48.762;12.302;2024-02-28T02:56:20;302.90;;;124.07;;
72209;SDS011;60113;48.762;12.302;2024-02-28T02:58:46;308.52;;;123.65;;
72209;SDS011;60113;48.762;12.302;2024-02-28T03:01:12;332.42;;;128.07;;
72209;SDS011;60113;48.762;12.302;2024-02-28T03:03:37;345.00;;;132.50;;
72209;SDS011;60113;48.762;12.302;2024-02-28T03:06:03;330.13;;;130.73;;
72209;SDS011;60113;48.762;12.302;2024-02-28T03:08:30;304.15;;;124.53;;
72209;SDS011;60113;48.762;12.302;2024-02-28T03:10:55;339.98;;;134.90;;
72209;SDS011;60113;48.762;12.302;2024-02-28T03:13:21;343.23;;;138.13;;
72209;SDS011;60113;48.762;12.302;2024-02-28T03:15:47;347.25;;;141.27;;
72209;SDS011;60113;48.762;12.302;2024-02-28T03:18:13;372.42;;;145.48;;
72209;SDS011;60113;48.762;12.302;2024-02-28T03:20:39;367.50;;;146.18;;
72209;SDS011;60113;48.762;12.302;2024-02-28T03:23:05;375.13;;;144.23;;
72209;SDS011;60113;48.762;12.302;2024-02-28T03:25:31;363.67;;;138.70;;
72209;SDS011;60113;48.762;12.302;2024-02-28T03:27:57;329.85;;;133.75;;
72209;SDS011;60113;48.762;12.302;2024-02-28T03:30:23;376.88;;;144.98;;
72209;SDS011;60113;48.762;12.302;2024-02-28T03:32:49;364.77;;;145.25;;
72209;SDS011;60113;48.762;12.302;2024-02-28T03:35:14;349.77;;;134.27;;
72209;SDS011;60113;48.762;12.302;2024-02-28T03:37:40;357.77;;;139.82;;
72209;SDS011;60113;48.762;12.302;2024-02-28T03:40:05;379.17;;;142.85;;
72209;SDS011;60113;48.762;12.302;2024-02-28T03:42:32;343.48;;;133.55;;
72209;SDS011;60113;48.762;12.302;2024-02-28T03:44:58;378.02;;;139.60;;
72209;SDS011;60113;48.762;12.302;2024-02-28T03:47:23;338.70;;;132.35;;
72209;SDS011;60113;48.762;12.302;2024-02-28T03:49:50;341.42;;;124.57;;
72209;SDS011;60113;48.762;12.302;2024-02-28T03:52:15;336.60;;;128.68;;
72209;SDS011;60113;48.762;12.302;2024-02-28T03:54:44;310.40;;;117.88;;
72209;SDS011;60113;48.762;12.302;2024-02-28T03:57:09;335.63;;;127.70;;
72209;SDS011;60113;48.762;12.302;2024-02-28T03:59:35;319.23;;;122.00;;
72209;SDS011;60113;48.762;12.302;2024-02-28T04:02:00;339.33;;;125.53;;
72209;SDS011;60113;48.762;12.302;2024-02-28T04:04:26;326.02;;;124.13;;
72209;SDS011;60113;48.762;12.302;2024-02-28T04:06:51;313.92;;;120.35;;
72209;SDS011;60113;48.762;12.302;2024-02-28T04:09:17;333.13;;;117.53;;
72209;SDS011;60113;48.762;12.302;2024-02-28T04:11:42;312.15;;;115.80;;
72209;SDS011;60113;48.762;12.302;2024-02-28T04:14:09;312.50;;;111.38;;
72209;SDS011;60113;48.762;12.302;2024-02-28T04:16:34;273.05;;;106.22;;
72209;SDS011;60113;48.762;12.302;2024-02-28T04:18:59;304.25;;;110.05;;
72209;SDS011;60113;48.762;12.302;2024-02-28T04:21:25;297.05;;;110.40;;
72209;SDS011;60113;48.762;12.302;2024-02-28T04:23:51;295.08;;;112.68;;
72209;SDS011;60113;48.762;12.302;2024-02-28T04:26:16;290.83;;;112.57;;
72209;SDS011;60113;48.762;12.302;2024-02-28T04:28:42;293.92;;;112.18;;
72209;SDS011;60113;48.762;12.302;2024-02-28T04:31:07;298.05;;;111.03;;
72209;SDS011;60113;48.762;12.302;2024-02-28T04:33:34;274.70;;;111.35;;
72209;SDS011;60113;48.762;12.302;2024-02-28T04:36:01;273.75;;;107.88;;
72209;SDS011;60113;48.762;12.302;2024-02-28T04:38:26;276.35;;;109.53;;
72209;SDS011;60113;48.762;12.302;2024-02-28T04:40:52;301.40;;;110.18;;
72209;SDS011;60113;48.762;12.302;2024-02-28T04:43:17;261.13;;;102.07;;
72209;SDS011;60113;48.762;12.302;2024-02-28T04:45:43;270.08;;;101.35;;
72209;SDS011;60113;48.762;12.302;2024-02-28T04:48:08;245.90;;;98.10;;
72209;SDS011;60113;48.762;12.302;2024-02-28T04:50:33;247.90;;;96.78;;
72209;SDS011;60113;48.762;12.302;2024-02-28T04:52:59;265.77;;;101.40;;
72209;SDS011;60113;48.762;12.302;2024-02-28T04:55:24;256.42;;;98.65;;
72209;SDS011;60113;48.762;12.302;2024-02-28T04:57:50;224.57;;;91.18;;
72209;SDS011;60113;48.762;12.302;2024-02-28T05:00:15;242.90;;;90.60;;
72209;SDS011;60113;48.762;12.302;2024-02-28T05:02:41;215.07;;;85.43;;
72209;SDS011;60113;48.762;12.302;2024-02-28T05:05:06;206.65;;;86.25;;
72209;SDS011;60113;48.762;12.302;2024-02-28T05:07:34;226.07;;;88.30;;
72209;SDS011;60113;48.762;12.302;2024-02-28T05:10:00;237.75;;;90.60;;
72209;SDS011;60113;48.762;12.302;2024-02-28T05:12:25;216.52;;;89.15;;
72209;SDS011;60113;48.762;12.302;2024-02-28T05:14:50;262.52;;;97.53;;
72209;SDS011;60113;48.762;12.302;2024-02-28T05:17:16;250.35;;;95.38;;
72209;SDS011;60113;48.762;12.302;2024-02-28T05:19:42;248.48;;;99.20;;
72209;SDS011;60113;48.762;12.302;2024-02-28T05:22:08;245.70;;;96.25;;
72209;SDS011;60113;48.762;12.302;2024-02-28T05:24:38;248.73;;;98.47;;
72209;SDS011;60113;48.762;12.302;2024-02-28T05:27:04;228.68;;;93.20;;
72209;SDS011;60113;48.762;12.302;2024-02-28T05:29:29;228.70;;;94.13;;
72209;SDS011;60113;48.762;12.302;2024-02-28T05:31:55;235.25;;;102.28;;
72209;SDS011;60113;48.762;12.302;2024-02-28T05:34:20;216.48;;;94.80;;
72209;SDS011;60113;48.762;12.302;2024-02-28T05:36:46;225.20;;;93.00;;
72209;SDS011;60113;48.762;12.302;2024-02-28T05:39:11;217.35;;;97.13;;
72209;SDS011;60113;48.762;12.302;2024-02-28T05:41:37;218.57;;;89.75;;
72209;SDS011;60113;48.762;12.302;2024-02-28T05:44:02;214.13;;;89.10;;
72209;SDS011;60113;48.762;12.302;2024-02-28T05:46:28;203.20;;;91.75;;
72209;SDS011;60113;48.762;12.302;2024-02-28T05:48:53;202.68;;;97.40;;
72209;SDS011;60113;48.762;12.302;2024-02-28T05:51:19;212.75;;;100.78;;
72209;SDS011;60113;48.762;12.302;2024-02-28T05:53:44;224.45;;;104.93;;
72209;SDS011;60113;48.762;12.302;2024-02-28T05:56:10;214.57;;;100.63;;
72209;SDS011;60113;48.762;12.302;2024-02-28T05:58:42;198.30;;;87.32;;
72209;SDS011;60113;48.762;12.302;2024-02-28T06:01:09;193.00;;;81.97;;
72209;SDS011;60113;48.762;12.302;2024-02-28T06:03:35;182.52;;;79.55;;
72209;SDS011;60113;48.762;12.302;2024-02-28T06:06:01;173.27;;;82.20;;
72209;SDS011;60113;48.762;12.302;2024-02-28T06:08:34;174.57;;;82.13;;
72209;SDS011;60113;48.762;12.302;2024-02-28T06:11:02;172.38;;;77.95;;
72209;SDS011;60113;48.762;12.302;2024-02-28T06:13:28;163.98;;;78.10;;
72209;SDS011;60113;48.762;12.302;2024-02-28T06:15:54;159.18;;;71.70;;
72209;SDS011;60113;48.762;12.302;2024-02-28T06:18:21;153.90;;;70.75;;
72209;SDS011;60113;48.762;12.302;2024-02-28T06:20:48;145.68;;;72.03;;
72209;SDS011;60113;48.762;12.302;2024-02-28T06:23:14;144.55;;;69.03;;
72209;SDS011;60113;48.762;12.302;2024-02-28T06:25:40;140.45;;;67.95;;
72209;SDS011;60113;48.762;12.302;2024-02-28T06:28:08;128.20;;;69.10;;
72209;SDS011;60113;48.762;12.302;2024-02-28T06:30:37;148.73;;;85.13;;
72209;SDS011;60113;48.762;12.302;2024-02-28T06:33:03;130.23;;;70.90;;
72209;SDS011;60113;48.762;12.302;2024-02-28T06:35:30;115.72;;;61.70;;
72209;SDS011;60113;48.762;12.302;2024-02-28T06:37:56;115.05;;;60.22;;
72209;SDS011;60113;48.762;12.302;2024-02-28T06:40:21;101.93;;;56.05;;
72209;SDS011;60113;48.762;12.302;2024-02-28T06:42:47;102.57;;;55.28;;
72209;SDS011;60113;48.762;12.302;2024-02-28T06:45:12;100.53;;;56.60;;
72209;SDS011;60113;48.762;12.302;2024-02-28T06:47:38;103.22;;;56.65;;
72209;SDS011;60113;48.762;12.302;2024-02-28T06:50:03;97.88;;;54.90;;
72209;SDS011;60113;48.762;12.302;2024-02-28T06:52:30;98.47;;;56.10;;
72209;SDS011;60113;48.762;12.302;2024-02-28T06:54:55;97.57;;;52.05;;
72209;SDS011;60113;48.762;12.302;2024-02-28T06:57:21;91.97;;;50.78;;
72209;SDS011;60113;48.762;12.302;2024-02-28T06:59:47;86.38;;;49.17;;
72209;SDS011;60113;48.762;12.302;2024-02-28T07:02:14;86.45;;;47.63;;
72209;SDS011;60113;48.762;12.302;2024-02-28T07:04:40;83.32;;;49.10;;
72209;SDS011;60113;48.762;12.302;2024-02-28T07:07:07;84.97;;;48.45;;
72209;SDS011;60113;48.762;12.302;2024-02-28T07:09:32;84.95;;;45.10;;
72209;SDS011;60113;48.762;12.302;2024-02-28T07:11:58;82.15;;;46.78;;
72209;SDS011;60113;48.762;12.302;2024-02-28T07:14:24;81.75;;;47.55;;
72209;SDS011;60113;48.762;12.302;2024-02-28T07:16:50;76.18;;;44.17;;
72209;SDS011;60113;48.762;12.302;2024-02-28T07:19:19;77.72;;;45.00;;
72209;SDS011;60113;48.762;12.302;2024-02-28T07:21:44;80.07;;;46.92;;
72209;SDS011;60113;48.762;12.302;2024-02-28T07:24:10;71.00;;;42.70;;
72209;SDS011;60113;48.762;12.302;2024-02-28T07:26:35;69.22;;;42.30;;
72209;SDS011;60113;48.762;12.302;2024-02-28T07:29:02;72.50;;;43.47;;
72209;SDS011;60113;48.762;12.302;2024-02-28T07:31:27;73.93;;;44.08;;
72209;SDS011;60113;48.762;12.302;2024-02-28T07:33:53;116.15;;;68.35;;
72209;SDS011;60113;48.762;12.302;2024-02-28T07:36:19;80.43;;;49.90;;
72209;SDS011;60113;48.762;12.302;2024-02-28T07:38:45;69.93;;;42.55;;
72209;SDS011;60113;48.762;12.302;2024-02-28T07:41:10;63.35;;;40.42;;
72209;SDS011;60113;48.762;12.302;2024-02-28T07:43:36;57.95;;;36.95;;
72209;SDS011;60113;48.762;12.302;2024-02-28T07:46:07;88.97;;;56.42;;
72209;SDS011;60113;48.762;12.302;2024-02-28T07:48:33;60.30;;;37.35;;
72209;SDS011;60113;48.762;12.302;2024-02-28T07:50:59;72.32;;;46.60;;
72209;SDS011;60113;48.762;12.302;2024-02-28T07:53:24;56.50;;;36.63;;
72209;SDS011;60113;48.762;12.302;2024-02-28T07:55:50;56.63;;;37.67;;
72209;SDS011;60113;48.762;12.302;2024-02-28T07:58:15;51.13;;;34.45;;
72209;SDS011;60113;48.762;12.302;2024-02-28T08:00:41;52.83;;;34.67;;
72209;SDS011;60113;48.762;12.302;2024-02-28T08:03:08;60.92;;;37.38;;
72209;SDS011;60113;48.762;12.302;2024-02-28T08:05:34;52.92;;;34.83;;
72209;SDS011;60113;48.762;12.302;2024-02-28T08:08:04;57.22;;;34.67;;
72209;SDS011;60113;48.762;12.302;2024-02-28T08:10:32;57.15;;;36.10;;
72209;SDS011;60113;48.762;12.302;2024-02-28T08:12:57;52.90;;;35.85;;
72209;SDS011;60113;48.762;12.302;2024-02-28T08:15:22;55.33;;;36.22;;
72209;SDS011;60113;48.762;12.302;2024-02-28T08:17:49;51.35;;;34.17;;
72209;SDS011;60113;48.762;12.302;2024-02-28T08:20:15;53.10;;;35.60;;
72209;SDS011;60113;48.762;12.302;2024-02-28T08:22:40;54.58;;;34.47;;
72209;SDS011;60113;48.762;12.302;2024-02-28T08:25:06;60.50;;;36.60;;
72209;SDS011;60113;48.762;12.302;2024-02-28T08:27:32;52.75;;;34.83;;
72209;SDS011;60113;48.762;12.302;2024-02-28T08:30:01;55.58;;;35.58;;
72209;SDS011;60113;48.762;12.302;2024-02-28T08:32:26;54.42;;;35.30;;
72209;SDS011;60113;48.762;12.302;2024-02-28T08:34:52;56.28;;;35.83;;
72209;SDS011;60113;48.762;12.302;2024-02-28T08:37:19;55.67;;;34.50;;
72209;SDS011;60113;48.762;12.302;2024-02-28T08:39:45;49.80;;;33.05;;
72209;SDS011;60113;48.762;12.302;2024-02-28T08:42:13;57.47;;;35.05;;
72209;SDS011;60113;48.762;12.302;2024-02-28T08:44:39;51.88;;;33.38;;
72209;SDS011;60113;48.762;12.302;2024-02-28T08:47:05;55.28;;;33.22;;
72209;SDS011;60113;48.762;12.302;2024-02-28T08:49:32;46.28;;;31.30;;
72209;SDS011;60113;48.762;12.302;2024-02-28T08:51:58;50.35;;;33.20;;
72209;SDS011;60113;48.762;12.302;2024-02-28T08:54:23;50.95;;;31.58;;
72209;SDS011;60113;48.762;12.302;2024-02-28T08:56:49;47.35;;;31.77;;
72209;SDS011;60113;48.762;12.302;2024-02-28T08:59:14;54.47;;;31.45;;
72209;SDS011;60113;48.762;12.302;2024-02-28T09:01:40;50.65;;;34.15;;
72209;SDS011;60113;48.762;12.302;2024-02-28T09:04:07;50.65;;;32.78;;
72209;SDS011;60113;48.762;12.302;2024-02-28T09:06:32;54.95;;;34.72;;
72209;SDS011;60113;48.762;12.302;2024-02-28T09:08:57;52.55;;;33.92;;
72209;SDS011;60113;48.762;12.302;2024-02-28T09:11:23;53.30;;;33.20;;
72209;SDS011;60113;48.762;12.302;2024-02-28T09:13:50;43.53;;;30.90;;
72209;SDS011;60113;48.762;12.302;2024-02-28T09:16:16;65.38;;;39.45;;
72209;SDS011;60113;48.762;12.302;2024-02-28T09:18:41;61.80;;;36.53;;
72209;SDS011;60113;48.762;12.302;2024-02-28T09:21:07;50.15;;;33.70;;
72209;SDS011;60113;48.762;12.302;2024-02-28T09:23:33;47.17;;;30.95;;
72209;SDS011;60113;48.762;12.302;2024-02-28T09:26:02;53.33;;;34.47;;
72209;SDS011;60113;48.762;12.302;2024-02-28T09:28:28;42.20;;;26.58;;
72209;SDS011;60113;48.762;12.302;2024-02-28T09:30:53;45.20;;;29.90;;
72209;SDS011;60113;48.762;12.302;2024-02-28T09:33:19;43.88;;;28.08;;
72209;SDS011;60113;48.762;12.302;2024-02-28T09:35:45;44.58;;;29.92;;
72209;SDS011;60113;48.762;12.302;2024-02-28T09:38:10;40.42;;;27.73;;
72209;SDS011;60113;48.762;12.302;2024-02-28T09:40:36;48.25;;;33.40;;
72209;SDS011;60113;48.762;12.302;2024-02-28T09:43:02;43.35;;;29.83;;
72209;SDS011;60113;48.762;12.302;2024-02-28T09:45:29;46.55;;;31.95;;
72209;SDS011;60113;48.762;12.302;2024-02-28T09:48:01;51.20;;;30.83;;
72209;SDS011;60113;48.762;12.302;2024-02-28T09:50:28;49.15;;;32.47;;
72209;SDS011;60113;48.762;12.302;2024-02-28T09:52:56;46.70;;;31.50;;
72209;SDS011;60113;48.762;12.302;2024-02-28T09:55:21;44.83;;;31.42;;
72209;SDS011;60113;48.762;12.302;2024-02-28T09:57:49;44.00;;;29.55;;
72209;SDS011;60113;48.762;12.302;2024-02-28T10:00:20;39.13;;;26.90;;
72209;SDS011;60113;48.762;12.302;2024-02-28T10:02:47;43.70;;;26.63;;
72209;SDS011;60113;48.762;12.302;2024-02-28T10:05:16;43.40;;;28.02;;
72209;SDS011;60113;48.762;12.302;2024-02-28T10:07:46;44.58;;;28.52;;
72209;SDS011;60113;48.762;12.302;2024-02-28T10:10:13;41.90;;;27.67;;
72209;SDS011;60113;48.762;12.302;2024-02-28T10:12:41;51.50;;;29.80;;
72209;SDS011;60113;48.762;12.302;2024-02-28T10:15:09;41.53;;;28.27;;
72209;SDS011;60113;48.762;12.302;2024-02-28T10:17:35;41.45;;;27.13;;
72209;SDS011;60113;48.762;12.302;2024-02-28T10:20:00;41.75;;;27.27;;
72209;SDS011;60113;48.762;12.302;2024-02-28T10:22:26;38.97;;;27.33;;
72209;SDS011;60113;48.762;12.302;2024-02-28T10:24:57;42.22;;;28.42;;
72209;SDS011;60113;48.762;12.302;2024-02-28T10:27:24;47.15;;;29.33;;
72209;SDS011;60113;48.762;12.302;2024-02-28T10:29:49;43.28;;;29.00;;
72209;SDS011;60113;48.762;12.302;2024-02-28T10:32:14;42.42;;;29.08;;
72209;SDS011;60113;48.762;12.302;2024-02-28T10:34:40;37.47;;;26.73;;
72209;SDS011;60113;48.762;12.302;2024-02-28T10:37:06;37.47;;;26.13;;
72209;SDS011;60113;48.762;12.302;2024-02-28T10:39:33;41.75;;;26.23;;
72209;SDS011;60113;48.762;12.302;2024-02-28T10:42:01;42.72;;;25.25;;
72209;SDS011;60113;48.762;12.302;2024-02-28T10:44:28;40.03;;;26.15;;
72209;SDS011;60113;48.762;12.302;2024-02-28T10:46:56;38.03;;;25.90;;
72209;SDS011;60113;48.762;12.302;2024-02-28T10:49:22;40.05;;;26.95;;
72209;SDS011;60113;48.762;12.302;2024-02-28T10:51:48;38.95;;;26.13;;
72209;SDS011;60113;48.762;12.302;2024-02-28T10:54:16;42.35;;;27.27;;
72209;SDS011;60113;48.762;12.302;2024-02-28T10:56:44;40.42;;;25.50;;
72209;SDS011;60113;48.762;12.302;2024-02-28T10:59:10;36.03;;;24.73;;
72209;SDS011;60113;48.762;12.302;2024-02-28T11:01:42;38.25;;;25.90;;
72209;SDS011;60113;48.762;12.302;2024-02-28T11:04:12;43.35;;;29.67;;
72209;SDS011;60113;48.762;12.302;2024-02-28T11:06:50;42.83;;;27.45;;
72209;SDS011;60113;48.762;12.302;2024-02-28T11:09:23;35.38;;;25.13;;
72209;SDS011;60113;48.762;12.302;2024-02-28T11:11:53;35.55;;;24.75;;
72209;SDS011;60113;48.762;12.302;2024-02-28T11:14:19;38.40;;;24.48;;
72209;SDS011;60113;48.762;12.302;2024-02-28T11:16:47;33.35;;;23.80;;
72209;SDS011;60113;48.762;12.302;2024-02-28T11:19:22;35.22;;;23.02;;
72209;SDS011;60113;48.762;12.302;2024-02-28T11:21:53;33.22;;;23.80;;
72209;SDS011;60113;48.762;12.302;2024-02-28T11:24:22;33.55;;;23.33;;
72209;SDS011;60113;48.762;12.302;2024-02-28T11:26:54;31.58;;;21.92;;
72209;SDS011;60113;48.762;12.302;2024-02-28T11:29:26;32.95;;;22.75;;
72209;SDS011;60113;48.762;12.302;2024-02-28T11:31:53;35.58;;;22.63;;
72209;SDS011;60113;48.762;12.302;2024-02-28T11:34:19;33.80;;;23.13;;
72209;SDS011;60113;48.762;12.302;2024-02-28T11:36:48;32.40;;;22.38;;
72209;SDS011;60113;48.762;12.302;2024-02-28T11:39:15;31.88;;;21.75;;
72209;SDS011;60113;48.762;12.302;2024-02-28T11:41:41;40.47;;;22.95;;
72209;SDS011;60113;48.762;12.302;2024-02-28T11:44:07;33.67;;;23.83;;
72209;SDS011;60113;48.762;12.302;2024-02-28T11:46:33;34.45;;;23.77;;
72209;SDS011;60113;48.762;12.302;2024-02-28T11:48:58;34.35;;;22.58;;
72209;SDS011;60113;48.762;12.302;2024-02-28T11:51:25;36.05;;;23.83;;
72209;SDS011;60113;48.762;12.302;2024-02-28T11:53:51;30.35;;;20.85;;
72209;SDS011;60113;48.762;12.302;2024-02-28T11:56:16;33.53;;;22.83;;
72209;SDS011;60113;48.762;12.302;2024-02-28T11:58:55;34.00;;;23.38;;
72209;SDS011;60113;48.762;12.302;2024-02-28T12:01:33;37.70;;;23.83;;
72209;SDS011;60113;48.762;12.302;2024-02-28T12:03:59;30.17;;;21.65;;
72209;SDS011;60113;48.762;12.302;2024-02-28T12:06:28;32.90;;;22.30;;
72209;SDS011;60113;48.762;12.302;2024-02-28T12:08:54;36.95;;;22.90;;
72209;SDS011;60113;48.762;12.302;2024-02-28T12:11:19;33.53;;;22.35;;
72209;SDS011;60113;48.762;12.302;2024-02-28T12:13:45;34.20;;;22.58;;
72209;SDS011;60113;48.762;12.302;2024-02-28T12:16:11;35.70;;;22.23;;
72209;SDS011;60113;48.762;12.302;2024-02-28T12:18:36;34.45;;;21.98;;
72209;SDS011;60113;48.762;12.302;2024-02-28T12:21:02;30.65;;;22.98;;
72209;SDS011;60113;48.762;12.302;2024-02-28T12:23:29;34.40;;;22.48;;
72209;SDS011;60113;48.762;12.302;2024-02-28T12:25:54;31.35;;;22.33;;
72209;SDS011;60113;48.762;12.302;2024-02-28T12:28:19;34.00;;;22.02;;
72209;SDS011;60113;48.762;12.302;2024-02-28T12:30:45;35.03;;;22.63;;
72209;SDS011;60113;48.762;12.302;2024-02-28T12:33:10;36.97;;;23.05;;
72209;SDS011;60113;48.762;12.302;2024-02-28T12:35:39;34.97;;;22.60;;
72209;SDS011;60113;48.762;12.302;2024-02-28T12:38:04;30.38;;;21.52;;
72209;SDS011;60113;48.762;12.302;2024-02-28T12:40:30;33.03;;;22.10;;
72209;SDS011;60113;48.762;12.302;2024-02-28T12:42:56;32.63;;;23.30;;
72209;SDS011;60113;48.762;12.302;2024-02-28T12:45:21;33.38;;;23.77;;
72209;SDS011;60113;48.762;12.302;2024-02-28T12:47:47;34.72;;;23.33;;
72209;SDS011;60113;48.762;12.302;2024-02-28T12:50:12;36.78;;;24.08;;
72209;SDS011;60113;48.762;12.302;2024-02-28T12:52:37;37.10;;;23.65;;
72209;SDS011;60113;48.762;12.302;2024-02-28T12:55:03;32.08;;;23.02;;
72209;SDS011;60113;48.762;12.302;2024-02-28T12:57:28;49.13;;;25.90;;
72209;SDS011;60113;48.762;12.302;2024-02-28T12:59:54;31.02;;;22.27;;
72209;SDS011;60113;48.762;12.302;2024-02-28T13:02:21;41.65;;;24.83;;
72209;SDS011;60113;48.762;12.302;2024-02-28T13:04:47;42.60;;;23.60;;
72209;SDS011;60113;48.762;12.302;2024-02-28T13:07:12;32.30;;;21.00;;
72209;SDS011;60113;48.762;12.302;2024-02-28T13:09:38;35.15;;;23.38;;
72209;SDS011;60113;48.762;12.302;2024-02-28T13:12:03;31.63;;;22.33;;
72209;SDS011;60113;48.762;12.302;2024-02-28T13:14:30;40.70;;;23.38;;
72209;SDS011;60113;48.762;12.302;2024-02-28T13:16:57;40.33;;;26.90;;
72209;SDS011;60113;48.762;12.302;2024-02-28T13:19:23;29.83;;;21.38;;
72209;SDS011;60113;48.762;12.302;2024-02-28T13:21:48;32.35;;;23.17;;
72209;SDS011;60113;48.762;12.302;2024-02-28T13:24:14;35.45;;;24.63;;
72209;SDS011;60113;48.762;12.302;2024-02-28T13:26:41;38.70;;;23.30;;
72209;SDS011;60113;48.762;12.302;2024-02-28T13:29:07;53.35;;;33.42;;
72209;SDS011;60113;48.762;12.302;2024-02-28T13:31:33;35.40;;;23.48;;
72209;SDS011;60113;48.762;12.302;2024-02-28T13:34:00;33.97;;;22.58;;
72209;SDS011;60113;48.762;12.302;2024-02-28T13:36:25;40.92;;;25.20;;
72209;SDS011;60113;48.762;12.302;2024-02-28T13:38:51;44.35;;;26.75;;
72209;SDS011;60113;48.762;12.302;2024-02-28T13:41:16;38.70;;;24.45;;
72209;SDS011;60113;48.762;12.302;2024-02-28T13:43:42;45.70;;;28.70;;
72209;SDS011;60113;48.762;12.302;2024-02-28T13:46:07;39.10;;;26.73;;
72209;SDS011;60113;48.762;12.302;2024-02-28T13:48:33;47.65;;;28.27;;
72209;SDS011;60113;48.762;12.302;2024-02-28T13:50:59;44.40;;;28.17;;
72209;SDS011;60113;48.762;12.302;2024-02-28T13:53:24;47.88;;;28.40;;